createdAt,value
2023-06-11T00:01:07.382Z,17.90
2023-06-11T00:03:42.468Z,17.80
2023-06-11T00:06:23.119Z,17.80
2023-06-11T00:08:57.908Z,17.80
2023-06-11T00:11:32.179Z,17.70
2023-06-11T00:14:06.363Z,17.70
2023-06-11T00:16:42.540Z,17.70
2023-06-11T00:19:18.527Z,17.70
2023-06-11T00:21:57.819Z,17.60
2023-06-11T00:24:32.547Z,17.60
2023-06-11T00:27:07.601Z,17.50
2023-06-11T00:29:42.420Z,17.50
2023-06-11T00:32:17.122Z,17.50
2023-06-11T00:34:51.457Z,17.40
2023-06-11T00:37:32.229Z,17.40
2023-06-11T00:40:07.783Z,17.40
2023-06-11T00:42:42.414Z,17.30
2023-06-11T00:45:18.262Z,17.30
2023-06-11T00:47:53.707Z,17.20
2023-06-11T00:50:30.121Z,17.10
2023-06-11T00:53:06.848Z,17.00
2023-06-11T00:55:41.064Z,17.00
2023-06-11T00:58:19.180Z,16.90
2023-06-11T01:00:57.855Z,16.80
2023-06-11T01:03:34.923Z,16.70
2023-06-11T01:06:19.642Z,16.70
2023-06-11T01:08:59.405Z,16.60
2023-06-11T01:11:40.955Z,16.50
2023-06-11T01:14:18.179Z,16.40
2023-06-11T01:16:59.341Z,16.30
2023-06-11T01:19:46.505Z,16.30
2023-06-11T01:22:23.947Z,16.20
2023-06-11T01:25:18.485Z,16.10
2023-06-11T01:28:07.346Z,16.10
2023-06-11T01:30:38.413Z,16.00
2023-06-11T01:33:15.376Z,16.00
2023-06-11T01:35:59.512Z,15.90
2023-06-11T01:38:43.256Z,15.90
2023-06-11T01:41:24.662Z,15.80
2023-06-11T01:44:01.933Z,15.80
2023-06-11T01:46:36.756Z,15.80
2023-06-11T01:49:11.550Z,15.70
2023-06-11T01:51:46.484Z,15.70
2023-06-11T01:54:21.753Z,15.60
2023-06-11T01:56:56.482Z,15.60
2023-06-11T01:59:33.818Z,15.50
2023-06-11T02:02:08.518Z,15.40
2023-06-11T02:04:43.507Z,15.40
2023-06-11T02:07:18.233Z,15.40
2023-06-11T02:09:53.164Z,15.40
2023-06-11T02:12:28.209Z,15.30
2023-06-11T02:15:05.879Z,15.30
2023-06-11T02:17:40.135Z,15.30
2023-06-11T02:20:16.818Z,15.30
2023-06-11T02:22:51.131Z,15.30
2023-06-11T02:25:25.229Z,15.30
2023-06-11T02:28:02.183Z,15.30
2023-06-11T02:30:38.262Z,15.40
2023-06-11T02:33:16.802Z,15.40
2023-06-11T02:35:51.245Z,15.40
2023-06-11T02:38:26.171Z,15.40
2023-06-11T02:41:00.339Z,15.40
2023-06-11T02:43:35.308Z,15.50
2023-06-11T02:46:10.137Z,15.50
2023-06-11T02:48:47.180Z,15.50
2023-06-11T02:51:21.213Z,15.50
2023-06-11T02:53:55.319Z,15.50
2023-06-11T02:56:31.180Z,15.50
2023-06-11T02:59:05.611Z,15.50
2023-06-11T03:01:40.949Z,15.50
2023-06-11T03:04:19.794Z,15.50
2023-06-11T03:06:55.175Z,15.60
2023-06-11T03:09:29.698Z,15.60
2023-06-11T03:12:04.524Z,15.60
2023-06-11T03:14:38.267Z,15.60
2023-06-11T03:17:13.661Z,15.60
2023-06-11T03:19:50.255Z,15.70
2023-06-11T03:22:24.260Z,15.70
2023-06-11T03:24:59.433Z,15.70
2023-06-11T03:27:39.256Z,15.80
2023-06-11T03:30:15.148Z,15.90
2023-06-11T03:32:50.314Z,16.00
2023-06-11T03:35:28.009Z,16.10
2023-06-11T03:38:03.546Z,16.10
2023-06-11T03:40:37.508Z,16.30
2023-06-11T03:43:13.685Z,16.40
2023-06-11T03:45:49.730Z,16.50
2023-06-11T03:48:25.368Z,16.70
2023-06-11T03:51:03.517Z,16.80
2023-06-11T03:53:38.511Z,16.90
2023-06-11T03:56:13.938Z,17.10
2023-06-11T03:58:48.755Z,17.10
2023-06-11T04:01:22.139Z,17.30
2023-06-11T04:03:57.206Z,17.30
2023-06-11T04:06:40.169Z,17.50
2023-06-11T04:09:15.761Z,17.60
2023-06-11T04:11:51.728Z,17.80
2023-06-11T04:14:26.381Z,17.90
2023-06-11T04:17:01.213Z,18.10
2023-06-11T04:19:36.237Z,18.20
2023-06-11T04:22:13.952Z,18.40
2023-06-11T04:24:49.436Z,18.60
2023-06-11T04:27:25.441Z,18.70
2023-06-11T04:30:00.467Z,18.80
2023-06-11T04:32:38.424Z,19.00
2023-06-11T04:35:16.160Z,19.20
2023-06-11T04:37:57.229Z,19.30
2023-06-11T04:40:35.568Z,19.40
2023-06-11T04:43:11.850Z,19.60
2023-06-11T04:45:51.123Z,19.80
2023-06-11T04:48:26.520Z,19.90
2023-06-11T04:51:02.186Z,20.00
2023-06-11T04:53:46.899Z,20.10
2023-06-11T04:56:24.899Z,20.30
2023-06-11T04:58:59.726Z,20.50
2023-06-11T05:01:39.005Z,20.60
2023-06-11T05:04:15.400Z,20.80
2023-06-11T05:06:50.737Z,20.90
2023-06-11T05:09:32.681Z,21.10
2023-06-11T05:12:10.464Z,21.20
2023-06-11T05:14:46.342Z,21.30
2023-06-11T05:17:21.313Z,21.40
2023-06-11T05:19:57.639Z,21.50
2023-06-11T05:22:32.311Z,21.60
2023-06-11T05:25:16.522Z,21.80
2023-06-11T05:27:51.626Z,21.90
2023-06-11T05:30:27.083Z,22.00
2023-06-11T05:33:02.927Z,22.10
2023-06-11T05:35:38.295Z,22.30
2023-06-11T05:38:13.293Z,22.50
2023-06-11T05:40:52.585Z,22.60
2023-06-11T05:43:28.180Z,22.70
2023-06-11T05:46:02.687Z,22.80
2023-06-11T05:48:38.269Z,22.80
2023-06-11T05:51:13.277Z,22.90
2023-06-11T05:53:49.498Z,23.10
2023-06-11T05:56:26.967Z,23.20
2023-06-11T05:59:03.230Z,23.30
2023-06-11T06:01:38.465Z,23.40
2023-06-11T06:04:13.491Z,23.60
2023-06-11T06:06:48.926Z,23.70
2023-06-11T06:09:23.298Z,23.70
2023-06-11T06:12:02.093Z,23.80
2023-06-11T06:14:37.572Z,24.10
2023-06-11T06:17:12.953Z,24.30
2023-06-11T06:19:49.315Z,24.40
2023-06-11T06:22:24.338Z,24.40
2023-06-11T06:25:01.611Z,24.60
2023-06-11T06:27:40.878Z,24.60
2023-06-11T06:30:17.385Z,24.70
2023-06-11T06:32:52.289Z,24.60
2023-06-11T06:35:26.128Z,24.80
2023-06-11T06:38:01.253Z,25.00
2023-06-11T06:40:36.333Z,25.10
2023-06-11T06:43:14.346Z,25.20
2023-06-11T06:45:52.923Z,25.30
2023-06-11T06:48:32.851Z,25.50
2023-06-11T06:51:07.486Z,25.60
2023-06-11T06:53:43.211Z,25.50
2023-06-11T06:56:19.956Z,25.60
2023-06-11T06:58:57.055Z,25.50
2023-06-11T07:01:32.042Z,25.60
2023-06-11T07:04:07.690Z,25.60
2023-06-11T07:06:43.630Z,25.60
2023-06-11T07:09:19.260Z,25.60
2023-06-11T07:11:56.870Z,25.60
2023-06-11T07:14:35.327Z,25.70
2023-06-11T07:17:11.365Z,25.70
2023-06-11T07:19:46.772Z,25.80
2023-06-11T07:22:20.974Z,25.90
2023-06-11T07:24:58.213Z,26.10
2023-06-11T07:27:33.548Z,26.10
2023-06-11T07:30:14.401Z,26.10
2023-06-11T07:32:49.757Z,26.00
2023-06-11T07:35:25.975Z,26.00
2023-06-11T07:38:01.628Z,26.10
2023-06-11T07:40:37.326Z,26.10
2023-06-11T07:43:12.210Z,26.20
2023-06-11T07:45:49.308Z,26.10
2023-06-11T07:48:27.104Z,26.30
2023-06-11T07:51:03.370Z,26.50
2023-06-11T07:53:38.736Z,26.60
2023-06-11T07:56:14.868Z,26.70
2023-06-11T07:58:49.461Z,26.70
2023-06-11T08:01:27.466Z,26.40
2023-06-11T08:04:02.669Z,26.40
2023-06-11T08:06:37.476Z,26.40
2023-06-11T08:09:13.075Z,26.10
2023-06-11T08:11:47.654Z,26.30
2023-06-11T08:14:22.793Z,26.30
2023-06-11T08:17:00.479Z,26.40
2023-06-11T08:19:35.862Z,26.50
2023-06-11T08:22:10.978Z,26.70
2023-06-11T08:24:44.528Z,26.80
2023-06-11T08:27:19.522Z,27.00
2023-06-11T08:29:54.838Z,27.00
2023-06-11T08:32:32.744Z,27.00
2023-06-11T08:35:08.977Z,27.10
2023-06-11T08:37:43.392Z,27.00
2023-06-11T08:40:19.073Z,27.10
2023-06-11T08:42:53.881Z,27.20
2023-06-11T08:45:28.974Z,27.20
2023-06-11T08:48:07.215Z,27.20
2023-06-11T08:50:41.663Z,26.90
2023-06-11T08:53:17.295Z,26.80
2023-06-11T08:55:52.013Z,26.90
2023-06-11T08:58:27.235Z,26.90
2023-06-11T09:01:02.173Z,26.90
2023-06-11T09:03:39.508Z,27.00
2023-06-11T09:06:15.211Z,27.00
2023-06-11T09:09:00.762Z,27.10
2023-06-11T09:11:36.514Z,27.30
2023-06-11T09:14:11.816Z,27.30
2023-06-11T09:16:47.140Z,27.30
2023-06-11T09:19:25.594Z,27.40
2023-06-11T09:22:04.112Z,27.60
2023-06-11T09:24:38.468Z,27.60
2023-06-11T09:27:13.719Z,27.70
2023-06-11T09:29:48.579Z,27.70
2023-06-11T09:32:32.525Z,27.60
2023-06-11T09:35:13.230Z,27.70
2023-06-11T09:37:48.766Z,27.70
2023-06-11T09:40:25.218Z,27.70
2023-06-11T09:43:00.555Z,27.20
2023-06-11T09:45:35.788Z,26.90
2023-06-11T09:48:11.128Z,26.70
2023-06-11T09:50:46.676Z,26.60
2023-06-11T09:53:23.028Z,26.80
2023-06-11T09:56:10.465Z,26.80
2023-06-11T09:58:46.746Z,26.90
2023-06-11T10:01:21.802Z,27.00
2023-06-11T10:03:57.401Z,27.00
2023-06-11T10:06:37.410Z,27.00
2023-06-11T10:09:14.569Z,27.00
2023-06-11T10:11:51.917Z,27.20
2023-06-11T10:14:27.619Z,27.20
2023-06-11T10:17:05.052Z,27.40
2023-06-11T10:19:40.489Z,27.20
2023-06-11T10:22:17.594Z,27.30
2023-06-11T10:25:02.299Z,27.50
2023-06-11T10:27:40.711Z,27.50
2023-06-11T10:30:25.969Z,27.50
2023-06-11T10:32:59.786Z,27.50
2023-06-11T10:35:37.942Z,27.50
2023-06-11T10:38:16.649Z,27.60
2023-06-11T10:40:52.090Z,27.50
2023-06-11T10:43:26.193Z,27.50
2023-06-11T10:46:05.461Z,27.60
2023-06-11T10:48:41.036Z,27.80
2023-06-11T10:51:17.202Z,27.60
2023-06-11T10:54:04.162Z,27.50
2023-06-11T10:56:40.844Z,27.40
2023-06-11T10:59:15.860Z,27.50
2023-06-11T11:01:50.706Z,27.50
2023-06-11T11:04:26.670Z,27.40
2023-06-11T11:07:10.058Z,27.30
2023-06-11T11:09:47.626Z,27.20
2023-06-11T11:12:23.187Z,27.00
2023-06-11T11:14:56.694Z,26.90
2023-06-11T11:17:29.794Z,26.90
2023-06-11T11:20:05.368Z,27.00
2023-06-11T11:22:40.321Z,27.00
2023-06-11T11:25:20.285Z,27.10
2023-06-11T11:27:54.595Z,27.00
2023-06-11T11:30:30.321Z,26.80
2023-06-11T11:33:04.917Z,26.70
2023-06-11T11:35:49.306Z,26.80
2023-06-11T11:38:23.495Z,26.80
2023-06-11T11:41:02.404Z,26.90
2023-06-11T11:43:41.151Z,26.90
2023-06-11T11:46:20.341Z,26.90
2023-06-11T11:48:58.042Z,27.00
2023-06-11T11:51:32.356Z,27.00
2023-06-11T11:54:06.908Z,26.90
2023-06-11T11:56:45.199Z,26.70
2023-06-11T11:59:22.712Z,26.70
2023-06-11T12:02:02.423Z,26.80
2023-06-11T12:04:40.491Z,26.80
2023-06-11T12:07:16.821Z,26.70
2023-06-11T12:09:51.545Z,26.50
2023-06-11T12:12:27.527Z,26.30
2023-06-11T12:15:04.049Z,26.20
2023-06-11T12:17:39.096Z,26.20
2023-06-11T12:20:14.404Z,26.20
2023-06-11T12:22:48.875Z,26.30
2023-06-11T12:25:23.714Z,26.30
2023-06-11T12:28:01.191Z,26.30
2023-06-11T12:30:36.323Z,26.30
2023-06-11T12:33:10.536Z,26.30
2023-06-11T12:35:44.763Z,26.40
2023-06-11T12:38:20.051Z,26.40
2023-06-11T12:40:55.212Z,26.30
2023-06-11T12:43:32.666Z,26.30
2023-06-11T12:46:08.931Z,26.40
2023-06-11T12:48:43.499Z,26.60
2023-06-11T12:51:21.201Z,26.60
2023-06-11T12:53:54.497Z,26.50
2023-06-11T12:56:30.250Z,26.40
2023-06-11T12:59:07.527Z,26.40
2023-06-11T13:01:43.072Z,26.40
2023-06-11T13:04:17.683Z,26.40
2023-06-11T13:06:52.951Z,26.30
2023-06-11T13:09:28.484Z,26.30
2023-06-11T13:12:03.011Z,26.30
2023-06-11T13:14:41.028Z,26.30
2023-06-11T13:17:16.000Z,26.20
2023-06-11T13:19:51.217Z,26.30
2023-06-11T13:22:26.417Z,26.30
2023-06-11T13:25:02.262Z,26.30
2023-06-11T13:27:36.820Z,26.30
2023-06-11T13:30:11.357Z,26.40
2023-06-11T13:32:49.592Z,26.30
2023-06-11T13:35:24.766Z,26.30
2023-06-11T13:37:59.926Z,26.30
2023-06-11T13:40:34.479Z,26.30
2023-06-11T13:43:09.597Z,26.30
2023-06-11T13:45:46.035Z,26.30
2023-06-11T13:48:24.045Z,26.20
2023-06-11T13:51:00.378Z,26.10
2023-06-11T13:53:34.714Z,26.10
2023-06-11T13:56:10.207Z,26.20
2023-06-11T13:58:42.565Z,26.20
2023-06-11T14:01:17.631Z,26.20
2023-06-11T14:03:55.684Z,26.20
2023-06-11T14:06:33.411Z,26.10
2023-06-11T14:09:09.555Z,26.20
2023-06-11T14:11:44.774Z,26.20
2023-06-11T14:14:23.506Z,26.10
2023-06-11T14:17:02.015Z,26.10
2023-06-11T14:19:39.092Z,26.10
2023-06-11T14:22:14.984Z,26.10
2023-06-11T14:24:49.397Z,26.00
2023-06-11T14:27:25.664Z,26.10
2023-06-11T14:30:02.219Z,26.10
2023-06-11T14:32:38.020Z,26.10
2023-06-11T14:35:15.579Z,26.10
2023-06-11T14:37:50.569Z,26.10
2023-06-11T14:40:25.694Z,26.00
2023-06-11T14:43:01.356Z,26.00
2023-06-11T14:45:38.042Z,26.00
2023-06-11T14:48:13.740Z,26.00
2023-06-11T14:50:52.186Z,26.00
2023-06-11T14:53:26.643Z,26.00
2023-06-11T14:56:01.840Z,25.90
2023-06-11T14:58:36.805Z,25.90
2023-06-11T15:01:12.294Z,25.90
2023-06-11T15:03:44.430Z,25.90
2023-06-11T15:06:22.135Z,25.90
2023-06-11T15:08:56.885Z,25.90
2023-06-11T15:11:31.993Z,25.90
2023-06-11T15:14:07.827Z,25.90
2023-06-11T15:16:41.947Z,25.80
2023-06-11T15:19:16.719Z,25.80
2023-06-11T15:21:55.029Z,25.80
2023-06-11T15:24:29.566Z,25.80
2023-06-11T15:27:04.561Z,25.80
2023-06-11T15:29:39.561Z,25.70
2023-06-11T15:32:14.446Z,25.70
2023-06-11T15:34:48.978Z,25.60
2023-06-11T15:37:29.404Z,25.60
2023-06-11T15:40:04.387Z,25.50
2023-06-11T15:42:40.351Z,25.50
2023-06-11T15:45:16.108Z,25.50
2023-06-11T15:47:51.593Z,25.50
2023-06-11T15:50:26.274Z,25.50
2023-06-11T15:53:04.539Z,25.50
2023-06-11T15:55:41.624Z,25.50
2023-06-11T15:58:17.062Z,25.50
2023-06-11T16:00:51.968Z,25.50
2023-06-11T16:03:26.935Z,25.50
2023-06-11T16:06:02.032Z,25.40
2023-06-11T16:08:39.765Z,25.40
2023-06-11T16:11:14.982Z,25.30
2023-06-11T16:13:50.453Z,25.30
2023-06-11T16:16:22.098Z,25.30
2023-06-11T16:18:56.618Z,25.30
2023-06-11T16:21:31.668Z,25.20
2023-06-11T16:24:10.426Z,25.20
2023-06-11T16:26:47.335Z,25.10
2023-06-11T16:29:22.069Z,25.10
2023-06-11T16:31:57.173Z,25.10
2023-06-11T16:34:31.588Z,25.00
2023-06-11T16:37:07.869Z,25.00
2023-06-11T16:39:47.110Z,25.00
2023-06-11T16:42:21.586Z,25.00
2023-06-11T16:44:56.607Z,24.90
2023-06-11T16:47:31.989Z,24.80
2023-06-11T16:50:07.017Z,24.80
2023-06-11T16:52:42.091Z,24.80
2023-06-11T16:55:21.688Z,24.80
2023-06-11T16:57:58.163Z,24.80
2023-06-11T17:00:33.020Z,24.70
2023-06-11T17:03:05.531Z,24.70
2023-06-11T17:05:41.413Z,24.60
2023-06-11T17:08:18.560Z,24.60
2023-06-11T17:10:57.542Z,24.60
2023-06-11T17:13:33.591Z,24.60
2023-06-11T17:16:10.248Z,24.50
2023-06-11T17:18:44.207Z,24.40
2023-06-11T17:21:19.287Z,24.40
2023-06-11T17:23:57.200Z,24.30
2023-06-11T17:26:34.855Z,24.30
2023-06-11T17:29:10.180Z,24.30
2023-06-11T17:31:46.554Z,24.20
2023-06-11T17:34:22.450Z,24.10
2023-06-11T17:36:58.718Z,24.10
2023-06-11T17:39:34.679Z,24.00
2023-06-11T17:42:15.547Z,24.00
2023-06-11T17:44:52.544Z,23.90
2023-06-11T17:47:27.335Z,23.80
2023-06-11T17:50:02.277Z,23.80
2023-06-11T17:52:35.221Z,23.70
2023-06-11T17:55:14.626Z,23.70
2023-06-11T17:57:49.068Z,23.60
2023-06-11T18:00:27.726Z,23.60
2023-06-11T18:03:03.541Z,23.50
2023-06-11T18:05:38.816Z,23.40
2023-06-11T18:08:13.666Z,23.30
2023-06-11T18:10:47.107Z,23.30
2023-06-11T18:13:23.111Z,23.20
2023-06-11T18:16:00.663Z,23.20
2023-06-11T18:18:36.038Z,23.00
2023-06-11T18:21:11.284Z,23.00
2023-06-11T18:23:45.825Z,23.00
2023-06-11T18:26:20.721Z,22.90
2023-06-11T18:28:55.653Z,22.80
2023-06-11T18:31:34.007Z,22.70
2023-06-11T18:34:09.405Z,22.60
2023-06-11T18:36:44.112Z,22.60
2023-06-11T18:39:19.300Z,22.50
2023-06-11T18:41:53.936Z,22.40
2023-06-11T18:44:29.465Z,22.30
2023-06-11T18:47:08.198Z,22.30
2023-06-11T18:49:42.798Z,22.20
2023-06-11T18:52:18.716Z,22.10
2023-06-11T18:54:54.688Z,22.00
2023-06-11T18:57:29.724Z,21.80
2023-06-11T19:00:06.360Z,21.90
2023-06-11T19:02:42.640Z,21.80
2023-06-11T19:05:18.284Z,21.70
2023-06-11T19:07:52.568Z,21.70
2023-06-11T19:10:26.890Z,21.60
2023-06-11T19:13:02.917Z,21.50
2023-06-11T19:15:37.575Z,21.40
2023-06-11T19:18:15.178Z,21.30
2023-06-11T19:20:49.568Z,21.30
2023-06-11T19:23:24.002Z,21.20
2023-06-11T19:25:58.892Z,21.10
2023-06-11T19:28:33.524Z,21.00
2023-06-11T19:31:07.621Z,20.90
2023-06-11T19:33:46.700Z,20.90
2023-06-11T19:36:21.607Z,20.80
2023-06-11T19:38:56.566Z,20.80
2023-06-11T19:41:31.872Z,20.70
2023-06-11T19:44:06.860Z,20.60
2023-06-11T19:46:41.628Z,20.60
2023-06-11T19:49:19.279Z,20.50
2023-06-11T19:51:53.626Z,20.40
2023-06-11T19:54:41.863Z,20.40
2023-06-11T19:57:23.798Z,20.30
2023-06-11T20:00:00.531Z,20.30
2023-06-11T20:02:35.687Z,20.20
2023-06-11T20:05:14.083Z,20.10
2023-06-11T20:07:48.680Z,20.10
2023-06-11T20:10:24.842Z,20.00
2023-06-11T20:12:59.675Z,20.00
2023-06-11T20:15:34.557Z,19.90
2023-06-11T20:18:08.767Z,19.90
2023-06-11T20:20:47.139Z,19.90
2023-06-11T20:23:21.572Z,19.80
2023-06-11T20:25:55.501Z,19.70
2023-06-11T20:28:29.599Z,19.70
2023-06-11T20:31:05.422Z,19.60
2023-06-11T20:33:39.562Z,19.50
2023-06-11T20:36:17.927Z,19.50
2023-06-11T20:38:52.571Z,19.50
2023-06-11T20:41:27.745Z,19.40
2023-06-11T20:44:02.561Z,19.30
2023-06-11T20:46:36.899Z,19.30
2023-06-11T20:49:11.836Z,19.30
2023-06-11T20:51:49.188Z,19.20
2023-06-11T20:54:23.770Z,19.20
2023-06-11T20:56:58.555Z,19.20
2023-06-11T20:59:33.531Z,19.10
2023-06-11T21:02:08.885Z,19.10
2023-06-11T21:04:44.181Z,19.10
2023-06-11T21:07:21.572Z,19.00
2023-06-11T21:09:56.651Z,19.00
2023-06-11T21:12:31.991Z,18.90
2023-06-11T21:15:07.224Z,18.80
2023-06-11T21:17:41.635Z,18.80
2023-06-11T21:20:16.618Z,18.80
2023-06-11T21:22:54.199Z,18.70
2023-06-11T21:25:28.534Z,18.70
2023-06-11T21:28:02.694Z,18.70
2023-06-11T21:30:38.293Z,18.60
2023-06-11T21:33:12.542Z,18.60
2023-06-11T21:35:51.190Z,18.50
2023-06-11T21:38:28.342Z,18.50
2023-06-11T21:41:00.570Z,18.50
2023-06-11T21:43:35.596Z,18.40
2023-06-11T21:46:10.495Z,18.40
2023-06-11T21:48:44.530Z,18.40
2023-06-11T21:51:18.627Z,18.30
2023-06-11T21:53:56.270Z,18.30
2023-06-11T21:56:31.032Z,18.20
2023-06-11T21:59:05.491Z,18.10
2023-06-11T22:01:39.609Z,18.00
2023-06-11T22:04:17.066Z,18.00
2023-06-11T22:06:54.186Z,17.90
2023-06-11T22:09:31.220Z,17.90
2023-06-11T22:12:05.828Z,17.90
2023-06-11T22:14:40.898Z,17.80
2023-06-11T22:17:15.629Z,17.80
2023-06-11T22:19:50.614Z,17.80
2023-06-11T22:22:24.547Z,17.80
2023-06-11T22:25:02.042Z,17.80
2023-06-11T22:27:36.562Z,17.70
2023-06-11T22:30:12.053Z,17.70
2023-06-11T22:32:45.324Z,17.70
2023-06-11T22:35:19.559Z,17.60
2023-06-11T22:37:53.532Z,17.60
2023-06-11T22:40:28.380Z,17.60
2023-06-11T22:43:02.680Z,17.60
2023-06-11T22:45:37.599Z,17.50
2023-06-11T22:48:11.615Z,17.50
2023-06-11T22:50:48.807Z,17.50
2023-06-11T22:53:23.539Z,17.40
2023-06-11T22:56:02.771Z,17.40
2023-06-11T22:58:37.546Z,17.40
2023-06-11T23:01:11.604Z,17.40
2023-06-11T23:03:46.925Z,17.30
2023-06-11T23:06:21.686Z,17.30
2023-06-11T23:08:56.702Z,17.30
2023-06-11T23:11:34.293Z,17.20
2023-06-11T23:14:08.545Z,17.20
2023-06-11T23:16:43.802Z,17.20
2023-06-11T23:19:18.825Z,17.10
2023-06-11T23:21:57.783Z,17.10
2023-06-11T23:24:32.821Z,17.10
2023-06-11T23:27:08.809Z,17.00
2023-06-11T23:29:45.006Z,17.00
2023-06-11T23:32:20.145Z,17.00
2023-06-11T23:34:55.706Z,17.00
2023-06-11T23:37:31.239Z,16.90
2023-06-11T23:40:05.873Z,16.90
2023-06-11T23:42:41.215Z,16.90
2023-06-11T23:45:15.744Z,16.80
2023-06-11T23:47:47.587Z,16.80
2023-06-11T23:50:22.735Z,16.80
2023-06-11T23:52:57.638Z,16.70
2023-06-11T23:55:31.506Z,16.70
2023-06-11T23:58:24.291Z,16.70
